Agunsa Capella — CBCW — position and weather

sailwx.info

Track history (hours):
 
Tides and Currents Weather Stations Pressure Air Temp Water Temp Dewpoint Dewpoint Depression Visibility Wind Speed Wind Dir Waves Ship Positions

Agunsa Capella

Last reported at 2018-Jan-12 10:49 UTC. Time now 2018-Jan-21 10:49 UTC.
Position S 33°02' W 071°36'.
Warning: this ship's position is 8 days out of date.

Length 78 m; draft 5.1 m.

Type: Ship (hazmat cat C). MMSI: 725001506.

Date/timePositionNaut miles runAvg speedWind from/ knotsBaromVisibWave heightAir tempDewpointWater temp
2018-Jan-12 10:49S 33°02' W 071°36'0 0.0
2018-Jan-12 10:25S 33°02' W 071°36'0 0.0
2018-Jan-11 23:11S 33°02' W 071°36'0 0.0
2018-Jan-11 22:56S 33°02' W 071°36'0 0.0
2018-Jan-11 22:29S 33°02' W 071°36'0 0.0
2018-Jan-11 21:59S 33°02' W 071°36'0 0.0
2018-Jan-11 21:26S 33°02' W 071°36'0 0.0
2018-Jan-11 20:47S 33°02' W 071°36'0 0.0
2018-Jan-11 20:26S 33°02' W 071°36'0 0.0
2018-Jan-11 19:59S 33°02' W 071°36'0 0.0
2018-Jan-11 19:26S 33°02' W 071°36'0 0.0
2018-Jan-11 18:53S 33°02' W 071°36'0 0.0
2018-Jan-11 17:25S 33°02' W 071°36'0 0.0
2018-Jan-11 16:19S 33°02' W 071°36'0 0.0
2018-Jan-11 10:58S 33°02' W 071°36'0 0.1
2018-Jan-11 10:28S 33°02' W 071°36'0 0.0
2018-Jan-11 09:59S 33°02' W 071°36'0 0.0
2018-Jan-11 08:31S 33°02' W 071°36'0 0.0
2018-Jan-11 07:47S 33°02' W 071°36'0 0.0
2018-Jan-11 07:26S 33°02' W 071°36'0 0.1
2018-Jan-11 06:04S 33°02' W 071°36'0 1.5
2018-Jan-11 06:00S 33°02' W 071°36'3 5.5
2018-Jan-11 05:29S 32°59' W 071°38'3 0.2
2018-Jan-10 10:51S 33°02' W 071°36'0 0.0
2018-Jan-10 10:24S 33°02' W 071°36'0 0.0
2018-Jan-10 07:45S 33°02' W 071°36'0 0.0
2018-Jan-10 06:39S 33°02' W 071°36'0 0.0
2018-Jan-10 00:15S 33°02' W 071°36'0 0.1
2018-Jan-10 00:00S 33°02' W 071°36'0 0.0
2018-Jan-09 22:21S 33°02' W 071°36'0 0.0
2018-Jan-09 22:00S 33°02' W 071°36'0 0.0
2018-Jan-09 21:24S 33°02' W 071°36'0 0.0
2018-Jan-09 21:00S 33°02' W 071°36'0 0.0
2018-Jan-09 11:45S 33°02' W 071°36'0 0.1
2018-Jan-09 11:30S 33°02' W 071°36'0 0.0
2018-Jan-09 10:57S 33°02' W 071°36'0 0.0
2018-Jan-09 10:30S 33°02' W 071°36'0 0.0
2018-Jan-09 10:00S 33°02' W 071°36'0 0.0
2018-Jan-09 05:09S 33°02' W 071°36'0 0.0
2018-Jan-09 04:54S 33°02' W 071°36'0 0.0
2018-Jan-09 04:27S 33°02' W 071°36'0 0.0
2018-Jan-08 23:45S 33°02' W 071°36'0 0.0
2018-Jan-08 23:30S 33°02' W 071°36'0 0.0
2018-Jan-08 23:00S 33°02' W 071°36'0 0.0
2018-Jan-08 22:27S 33°02' W 071°36'0 0.0
2018-Jan-08 22:00S 33°02' W 071°36'0 0.0
2018-Jan-08 21:30S 33°02' W 071°36'0 0.0
2018-Jan-08 20:27S 33°02' W 071°36'0 0.0
2018-Jan-08 16:15S 33°02' W 071°36'0 0.1
2018-Jan-08 16:00S 33°02' W 071°36'5 6.0
2018-Jan-08 15:12S 32°57' W 071°36'2 8.6
2018-Jan-08 15:00S 32°55' W 071°35'4 8.2
2018-Jan-08 14:30S 32°51' W 071°35'4 8.5
2018-Jan-08 14:00S 32°47' W 071°34'3 0.2
2018-Jan-07 23:46S 32°46' W 071°31'0 0.0
2018-Jan-07 23:28S 32°46' W 071°31'0 0.0
2018-Jan-07 22:58S 32°46' W 071°31'0 0.0
2018-Jan-07 22:28S 32°46' W 071°31'0 0.0
2018-Jan-07 21:52S 32°46' W 071°31'0 0.0
2018-Jan-07 21:28S 32°46' W 071°31'0 0.0
2018-Jan-07 20:58S 32°46' W 071°31'0 0.0
2018-Jan-07 20:22S 32°46' W 071°31'0 0.0
2018-Jan-07 19:58S 32°46' W 071°31'0 0.0
2018-Jan-07 19:28S 32°46' W 071°31'0 0.0
2018-Jan-07 18:55S 32°46' W 071°31'0 0.0
2018-Jan-07 18:25S 32°46' W 071°31'0 0.0
2018-Jan-07 17:58S 32°46' W 071°31'0 0.0
2018-Jan-07 17:28S 32°46' W 071°31'0 0.0
2018-Jan-07 16:58S 32°46' W 071°31'0 0.0
2018-Jan-07 16:13S 32°46' W 071°31'0 0.0
2018-Jan-07 15:16S 32°46' W 071°31'0 0.0
2018-Jan-07 14:52S 32°46' W 071°31'0 0.0
2018-Jan-07 14:28S 32°46' W 071°31'0 0.0
2018-Jan-07 13:04S 32°46' W 071°31'0 0.1
2018-Jan-07 12:58S 32°46' W 071°31'0 0.0
2018-Jan-07 11:43S 32°46' W 071°31'0 0.0
2018-Jan-07 11:22S 32°46' W 071°31'0 0.0
2018-Jan-07 10:52S 32°46' W 071°31'0 0.0
2018-Jan-07 10:28S 32°46' W 071°31'0 0.0
2018-Jan-07 09:57S 32°46' W 071°31'0 0.0
2018-Jan-06 23:15S 32°46' W 071°31'0 0.0
2018-Jan-06 22:57S 32°46' W 071°31'0 0.0
2018-Jan-06 22:09S 32°46' W 071°31'0 0.1
2018-Jan-06 21:51S 32°46' W 071°31'0 0.0
2018-Jan-06 18:53S 32°46' W 071°31'1 0.1
2018-Jan-06 08:11S 32°46' W 071°30'1 3.8
2018-Jan-06 07:59S 32°45' W 071°31'3 6.2
2018-Jan-06 07:30S 32°47' W 071°34'4 8.6
2018-Jan-06 07:00S 32°51' W 071°35'4 8.3
2018-Jan-06 06:31S 32°55' W 071°36'4 8.3
2018-Jan-06 05:58S 32°60' W 071°36'1 2.8
2018-Jan-06 05:27S 33°01' W 071°36'0 0.0
2018-Jan-06 01:50S 33°01' W 071°36'0 0.1
2018-Jan-06 01:29S 33°01' W 071°36'0 0.0
2018-Jan-06 01:00S 33°01' W 071°36'0 0.0
2018-Jan-06 00:30S 33°01' W 071°36'0 0.1
2018-Jan-06 00:00S 33°01' W 071°36'0 0.2
2018-Jan-05 23:31S 33°01' W 071°36'1 2.2
2018-Jan-05 23:00S 33°01' W 071°34'0 0.2
2018-Jan-05 22:28S 33°01' W 071°34'0 0.0
2018-Jan-05 21:10S 33°01' W 071°34'0 0.0
2018-Jan-05 20:58S 33°01' W 071°34'0 0.0
2018-Jan-05 20:25S 33°01' W 071°34'0 0.0
2018-Jan-05 19:58S 33°01' W 071°34'0 0.0
2018-Jan-05 19:28S 33°01' W 071°34'0 0.0
2018-Jan-05 10:58S 33°01' W 071°35'0 0.1
2018-Jan-05 10:28S 33°01' W 071°35'0 0.0
2018-Jan-05 09:58S 33°01' W 071°35'0 0.0
2018-Jan-05 09:28S 33°01' W 071°35'0 0.0
2018-Jan-05 08:49S 33°01' W 071°35'0 0.0
2018-Jan-05 06:01S 33°01' W 071°35'0 0.1
2018-Jan-05 05:49S 33°01' W 071°35'0 0.0
2018-Jan-05 05:25S 33°01' W 071°35'0 0.0
2018-Jan-05 04:58S 33°01' W 071°35'0 0.0
2018-Jan-05 04:19S 33°01' W 071°35'0 0.0
2018-Jan-05 03:55S 33°01' W 071°35'0 0.0
2018-Jan-05 03:28S 33°01' W 071°35'0 0.0
2018-Jan-05 02:43S 33°01' W 071°35'0 0.0
2018-Jan-05 01:13S 33°01' W 071°35'0 0.0
2018-Jan-05 00:49S 33°01' W 071°35'0 0.0
2018-Jan-04 21:55S 33°01' W 071°35'0 0.0
2018-Jan-04 21:25S 33°01' W 071°35'0 0.1
2018-Jan-04 20:58S 33°01' W 071°34'0 0.0
2018-Jan-04 20:28S 33°01' W 071°34'0 0.0
2018-Jan-04 10:49S 33°01' W 071°35'0 0.0
2018-Jan-04 10:22S 33°01' W 071°35'0 0.0
2018-Jan-04 09:49S 33°01' W 071°35'0 0.0
2018-Jan-04 05:37S 33°01' W 071°35'0 0.0
2018-Jan-04 05:22S 33°01' W 071°35'0 0.0
2018-Jan-04 03:59S 33°01' W 071°35'1 1.4
2018-Jan-04 03:30S 33°01' W 071°35'2 0.3
2018-Jan-03 20:09S 33°02' W 071°38'0 0.0
2018-Jan-03 20:00S 33°02' W 071°38'0 0.0
2018-Jan-03 19:30S 33°02' W 071°37'0 0.3
2018-Jan-03 19:01S 33°02' W 071°37'2 3.0
2018-Jan-03 18:30S 33°01' W 071°36'0 0.2
2018-Jan-03 17:58S 33°01' W 071°36'0 0.0
2018-Jan-03 17:15S 33°01' W 071°36'0 0.0
2018-Jan-03 16:54S 33°01' W 071°36'0 0.1
2018-Jan-03 16:27S 33°01' W 071°36'0 0.1
2018-Jan-03 15:51S 33°01' W 071°36'0 0.0
2018-Jan-03 15:21S 33°01' W 071°36'0 0.0
2018-Jan-03 14:54S 33°01' W 071°36'0 0.0
2018-Jan-03 14:24S 33°01' W 071°36'0 0.0
2018-Jan-03 14:00S 33°01' W 071°36'0 0.0
2018-Jan-03 13:30S 33°01' W 071°36'0 0.0
2018-Jan-03 13:00S 33°01' W 071°36'0 0.1
2018-Jan-03 12:21S 33°01' W 071°36'0 0.0
2018-Jan-03 11:54S 33°01' W 071°36'0 0.0
2018-Jan-03 11:24S 33°01' W 071°36'0 0.0
2018-Jan-03 11:00S 33°01' W 071°36'0 0.0
2018-Jan-03 10:30S 33°01' W 071°36'0 0.0
2018-Jan-03 10:00S 33°01' W 071°36'0 0.1
2018-Jan-03 09:21S 33°01' W 071°36'0 0.0
2018-Jan-03 09:00S 33°01' W 071°36'0 0.0
2018-Jan-03 08:15S 33°01' W 071°36'0 0.0
2018-Jan-03 05:48S 33°01' W 071°36'0 0.0
2018-Jan-03 05:12S 33°01' W 071°36'0 0.0
2018-Jan-03 05:00S 33°01' W 071°36'0 0.0
2018-Jan-03 03:54S 33°01' W 071°36'0 0.0
2018-Jan-03 03:27S 33°01' W 071°36'0 0.0
2018-Jan-03 02:57S 33°01' W 071°36'0 0.0
2018-Jan-03 00:00S 33°01' W 071°36'0 0.0
2018-Jan-02 23:21S 33°01' W 071°36'0 0.0
2018-Jan-02 23:00S 33°01' W 071°36'0 0.1
2018-Jan-02 22:30S 33°01' W 071°36'0 0.0
2018-Jan-02 22:00S 33°01' W 071°36'0 0.0
2018-Jan-02 21:27S 33°01' W 071°36'0 0.2
2018-Jan-02 20:51S 33°01' W 071°36'0 0.0
2018-Jan-02 20:21S 33°01' W 071°36'0 0.0
2018-Jan-02 19:48S 33°01' W 071°36'0 0.0
2018-Jan-02 18:39S 33°01' W 071°36'0 0.0
2018-Jan-02 18:09S 33°01' W 071°36'0 0.0
2018-Jan-02 17:57S 33°01' W 071°36'0 0.0
2018-Jan-02 17:30S 33°01' W 071°36'0 0.0
2018-Jan-02 17:00S 33°01' W 071°36'0 0.1
2018-Jan-02 16:27S 33°01' W 071°36'2 3.6
2018-Jan-02 15:50S 32°59' W 071°36'2 7.6
2018-Jan-02 15:30S 32°57' W 071°35'4 7.6
2018-Jan-02 15:00S 32°53' W 071°35'4 7.2
2018-Jan-02 14:31S 32°49' W 071°35'3 7.0
2018-Jan-02 14:01S 32°46' W 071°34'  
Track history (hours):
 
Tides and Currents Weather Stations Pressure Air Temp Water Temp Dewpoint Dewpoint Depression Visibility Wind Speed Wind Dir Waves Ship Positions

Agunsa Capella

Last reported at 2018-Jan-12 10:49 UTC. Time now 2018-Jan-21 10:49 UTC.
Position S 33°02' W 071°36'.
Warning: this ship's position is 8 days out of date.

Length 78 m; draft 5.1 m.

Type: Ship (hazmat cat C). MMSI: 725001506.

Date/timePositionNaut miles runAvg speedWind from/ knotsBaromVisibWave heightAir tempDewpointWater temp
2018-Jan-12 10:49S 33°02' W 071°36'0 0.0
2018-Jan-12 10:25S 33°02' W 071°36'0 0.0
2018-Jan-11 23:11S 33°02' W 071°36'0 0.0
2018-Jan-11 22:56S 33°02' W 071°36'0 0.0
2018-Jan-11 22:29S 33°02' W 071°36'0 0.0
2018-Jan-11 21:59S 33°02' W 071°36'0 0.0
2018-Jan-11 21:26S 33°02' W 071°36'0 0.0
2018-Jan-11 20:47S 33°02' W 071°36'0 0.0
2018-Jan-11 20:26S 33°02' W 071°36'0 0.0
2018-Jan-11 19:59S 33°02' W 071°36'0 0.0
2018-Jan-11 19:26S 33°02' W 071°36'0 0.0
2018-Jan-11 18:53S 33°02' W 071°36'0 0.0
2018-Jan-11 17:25S 33°02' W 071°36'0 0.0
2018-Jan-11 16:19S 33°02' W 071°36'0 0.0
2018-Jan-11 10:58S 33°02' W 071°36'0 0.1
2018-Jan-11 10:28S 33°02' W 071°36'0 0.0
2018-Jan-11 09:59S 33°02' W 071°36'0 0.0
2018-Jan-11 08:31S 33°02' W 071°36'0 0.0
2018-Jan-11 07:47S 33°02' W 071°36'0 0.0
2018-Jan-11 07:26S 33°02' W 071°36'0 0.1
2018-Jan-11 06:04S 33°02' W 071°36'0 1.5
2018-Jan-11 06:00S 33°02' W 071°36'3 5.5
2018-Jan-11 05:29S 32°59' W 071°38'3 0.2
2018-Jan-10 10:51S 33°02' W 071°36'0 0.0
2018-Jan-10 10:24S 33°02' W 071°36'0 0.0
2018-Jan-10 07:45S 33°02' W 071°36'0 0.0
2018-Jan-10 06:39S 33°02' W 071°36'0 0.0
2018-Jan-10 00:15S 33°02' W 071°36'0 0.1
2018-Jan-10 00:00S 33°02' W 071°36'0 0.0
2018-Jan-09 22:21S 33°02' W 071°36'0 0.0
2018-Jan-09 22:00S 33°02' W 071°36'0 0.0
2018-Jan-09 21:24S 33°02' W 071°36'0 0.0
2018-Jan-09 21:00S 33°02' W 071°36'0 0.0
2018-Jan-09 11:45S 33°02' W 071°36'0 0.1
2018-Jan-09 11:30S 33°02' W 071°36'0 0.0
2018-Jan-09 10:57S 33°02' W 071°36'0 0.0
2018-Jan-09 10:30S 33°02' W 071°36'0 0.0
2018-Jan-09 10:00S 33°02' W 071°36'0 0.0
2018-Jan-09 05:09S 33°02' W 071°36'0 0.0
2018-Jan-09 04:54S 33°02' W 071°36'0 0.0
2018-Jan-09 04:27S 33°02' W 071°36'0 0.0
2018-Jan-08 23:45S 33°02' W 071°36'0 0.0
2018-Jan-08 23:30S 33°02' W 071°36'0 0.0
2018-Jan-08 23:00S 33°02' W 071°36'0 0.0
2018-Jan-08 22:27S 33°02' W 071°36'0 0.0
2018-Jan-08 22:00S 33°02' W 071°36'0 0.0
2018-Jan-08 21:30S 33°02' W 071°36'0 0.0
2018-Jan-08 20:27S 33°02' W 071°36'0 0.0
2018-Jan-08 16:15S 33°02' W 071°36'0 0.1
2018-Jan-08 16:00S 33°02' W 071°36'5 6.0
2018-Jan-08 15:12S 32°57' W 071°36'2 8.6
2018-Jan-08 15:00S 32°55' W 071°35'4 8.2
2018-Jan-08 14:30S 32°51' W 071°35'4 8.5
2018-Jan-08 14:00S 32°47' W 071°34'3 0.2
2018-Jan-07 23:46S 32°46' W 071°31'0 0.0
2018-Jan-07 23:28S 32°46' W 071°31'0 0.0
2018-Jan-07 22:58S 32°46' W 071°31'0 0.0
2018-Jan-07 22:28S 32°46' W 071°31'0 0.0
2018-Jan-07 21:52S 32°46' W 071°31'0 0.0
2018-Jan-07 21:28S 32°46' W 071°31'0 0.0
2018-Jan-07 20:58S 32°46' W 071°31'0 0.0
2018-Jan-07 20:22S 32°46' W 071°31'0 0.0
2018-Jan-07 19:58S 32°46' W 071°31'0 0.0
2018-Jan-07 19:28S 32°46' W 071°31'0 0.0
2018-Jan-07 18:55S 32°46' W 071°31'0 0.0
2018-Jan-07 18:25S 32°46' W 071°31'0 0.0
2018-Jan-07 17:58S 32°46' W 071°31'0 0.0
2018-Jan-07 17:28S 32°46' W 071°31'0 0.0
2018-Jan-07 16:58S 32°46' W 071°31'0 0.0
2018-Jan-07 16:13S 32°46' W 071°31'0 0.0
2018-Jan-07 15:16S 32°46' W 071°31'0 0.0
2018-Jan-07 14:52S 32°46' W 071°31'0 0.0
2018-Jan-07 14:28S 32°46' W 071°31'0 0.0
2018-Jan-07 13:04S 32°46' W 071°31'0 0.1
2018-Jan-07 12:58S 32°46' W 071°31'0 0.0
2018-Jan-07 11:43S 32°46' W 071°31'0 0.0
2018-Jan-07 11:22S 32°46' W 071°31'0 0.0
2018-Jan-07 10:52S 32°46' W 071°31'0 0.0
2018-Jan-07 10:28S 32°46' W 071°31'0 0.0
2018-Jan-07 09:57S 32°46' W 071°31'0 0.0
2018-Jan-06 23:15S 32°46' W 071°31'0 0.0
2018-Jan-06 22:57S 32°46' W 071°31'0 0.0
2018-Jan-06 22:09S 32°46' W 071°31'0 0.1
2018-Jan-06 21:51S 32°46' W 071°31'0 0.0
2018-Jan-06 18:53S 32°46' W 071°31'1 0.1
2018-Jan-06 08:11S 32°46' W 071°30'1 3.8
2018-Jan-06 07:59S 32°45' W 071°31'3 6.2
2018-Jan-06 07:30S 32°47' W 071°34'4 8.6
2018-Jan-06 07:00S 32°51' W 071°35'4 8.3
2018-Jan-06 06:31S 32°55' W 071°36'4 8.3
2018-Jan-06 05:58S 32°60' W 071°36'1 2.8
2018-Jan-06 05:27S 33°01' W 071°36'0 0.0
2018-Jan-06 01:50S 33°01' W 071°36'0 0.1
2018-Jan-06 01:29S 33°01' W 071°36'0 0.0
2018-Jan-06 01:00S 33°01' W 071°36'0 0.0
2018-Jan-06 00:30S 33°01' W 071°36'0 0.1
2018-Jan-06 00:00S 33°01' W 071°36'0 0.2
2018-Jan-05 23:31S 33°01' W 071°36'1 2.2
2018-Jan-05 23:00S 33°01' W 071°34'0 0.2
2018-Jan-05 22:28S 33°01' W 071°34'0 0.0
2018-Jan-05 21:10S 33°01' W 071°34'0 0.0
2018-Jan-05 20:58S 33°01' W 071°34'0 0.0
2018-Jan-05 20:25S 33°01' W 071°34'0 0.0
2018-Jan-05 19:58S 33°01' W 071°34'0 0.0
2018-Jan-05 19:28S 33°01' W 071°34'0 0.0
2018-Jan-05 10:58S 33°01' W 071°35'0 0.1
2018-Jan-05 10:28S 33°01' W 071°35'0 0.0
2018-Jan-05 09:58S 33°01' W 071°35'0 0.0
2018-Jan-05 09:28S 33°01' W 071°35'0 0.0
2018-Jan-05 08:49S 33°01' W 071°35'0 0.0
2018-Jan-05 06:01S 33°01' W 071°35'0 0.1
2018-Jan-05 05:49S 33°01' W 071°35'0 0.0
2018-Jan-05 05:25S 33°01' W 071°35'0 0.0
2018-Jan-05 04:58S 33°01' W 071°35'0 0.0
2018-Jan-05 04:19S 33°01' W 071°35'0 0.0
2018-Jan-05 03:55S 33°01' W 071°35'0 0.0
2018-Jan-05 03:28S 33°01' W 071°35'0 0.0
2018-Jan-05 02:43S 33°01' W 071°35'0 0.0
2018-Jan-05 01:13S 33°01' W 071°35'0 0.0
2018-Jan-05 00:49S 33°01' W 071°35'0 0.0
2018-Jan-04 21:55S 33°01' W 071°35'0 0.0
2018-Jan-04 21:25S 33°01' W 071°35'0 0.1
2018-Jan-04 20:58S 33°01' W 071°34'0 0.0
2018-Jan-04 20:28S 33°01' W 071°34'0 0.0
2018-Jan-04 10:49S 33°01' W 071°35'0 0.0
2018-Jan-04 10:22S 33°01' W 071°35'0 0.0
2018-Jan-04 09:49S 33°01' W 071°35'0 0.0
2018-Jan-04 05:37S 33°01' W 071°35'0 0.0
2018-Jan-04 05:22S 33°01' W 071°35'0 0.0
2018-Jan-04 03:59S 33°01' W 071°35'1 1.4
2018-Jan-04 03:30S 33°01' W 071°35'2 0.3
2018-Jan-03 20:09S 33°02' W 071°38'0 0.0
2018-Jan-03 20:00S 33°02' W 071°38'0 0.0
2018-Jan-03 19:30S 33°02' W 071°37'0 0.3
2018-Jan-03 19:01S 33°02' W 071°37'2 3.0
2018-Jan-03 18:30S 33°01' W 071°36'0 0.2
2018-Jan-03 17:58S 33°01' W 071°36'0 0.0
2018-Jan-03 17:15S 33°01' W 071°36'0 0.0
2018-Jan-03 16:54S 33°01' W 071°36'0 0.1
2018-Jan-03 16:27S 33°01' W 071°36'0 0.1
2018-Jan-03 15:51S 33°01' W 071°36'0 0.0
2018-Jan-03 15:21S 33°01' W 071°36'0 0.0
2018-Jan-03 14:54S 33°01' W 071°36'0 0.0
2018-Jan-03 14:24S 33°01' W 071°36'0 0.0
2018-Jan-03 14:00S 33°01' W 071°36'0 0.0
2018-Jan-03 13:30S 33°01' W 071°36'0 0.0
2018-Jan-03 13:00S 33°01' W 071°36'0 0.1
2018-Jan-03 12:21S 33°01' W 071°36'0 0.0
2018-Jan-03 11:54S 33°01' W 071°36'0 0.0
2018-Jan-03 11:24S 33°01' W 071°36'0 0.0
2018-Jan-03 11:00S 33°01' W 071°36'0 0.0
2018-Jan-03 10:30S 33°01' W 071°36'0 0.0
2018-Jan-03 10:00S 33°01' W 071°36'0 0.1
2018-Jan-03 09:21S 33°01' W 071°36'0 0.0
2018-Jan-03 09:00S 33°01' W 071°36'0 0.0
2018-Jan-03 08:15S 33°01' W 071°36'0 0.0
2018-Jan-03 05:48S 33°01' W 071°36'0 0.0
2018-Jan-03 05:12S 33°01' W 071°36'0 0.0
2018-Jan-03 05:00S 33°01' W 071°36'0 0.0
2018-Jan-03 03:54S 33°01' W 071°36'0 0.0
2018-Jan-03 03:27S 33°01' W 071°36'0 0.0
2018-Jan-03 02:57S 33°01' W 071°36'0 0.0
2018-Jan-03 00:00S 33°01' W 071°36'0 0.0
2018-Jan-02 23:21S 33°01' W 071°36'0 0.0
2018-Jan-02 23:00S 33°01' W 071°36'0 0.1
2018-Jan-02 22:30S 33°01' W 071°36'0 0.0
2018-Jan-02 22:00S 33°01' W 071°36'0 0.0
2018-Jan-02 21:27S 33°01' W 071°36'0 0.2
2018-Jan-02 20:51S 33°01' W 071°36'0 0.0
2018-Jan-02 20:21S 33°01' W 071°36'0 0.0
2018-Jan-02 19:48S 33°01' W 071°36'0 0.0
2018-Jan-02 18:39S 33°01' W 071°36'0 0.0
2018-Jan-02 18:09S 33°01' W 071°36'0 0.0
2018-Jan-02 17:57S 33°01' W 071°36'0 0.0
2018-Jan-02 17:30S 33°01' W 071°36'0 0.0
2018-Jan-02 17:00S 33°01' W 071°36'0 0.1
2018-Jan-02 16:27S 33°01' W 071°36'2 3.6
2018-Jan-02 15:50S 32°59' W 071°36'2 7.6
2018-Jan-02 15:30S 32°57' W 071°35'4 7.6
2018-Jan-02 15:00S 32°53' W 071°35'4 7.2
2018-Jan-02 14:31S 32°49' W 071°35'3 7.0
2018-Jan-02 14:01S 32°46' W 071°34'  

Dump ship's entire track history